This is the latest recevied weather packets stored in our database for station/object DC7RY. If no packets are shown the sender has not sent any weather packets the latest 1 day(s).
| Time | Temp. | Humidity | Pressure | Rain* | Wind** | Luminosity | Snow |
|---|---|---|---|---|---|---|---|
| 1777976417 | 19.44° C | 61% | 1003.4 hPa | 0 mm | 0.45 m/s, 99° | 284 W/m² | - |
| 1777975825 | 19.44° C | 59% | 1003.7 hPa | 0 mm | 1.34 m/s, 270° | 248 W/m² | - |
| 1777975217 | 18.33° C | 69% | 1003.8 hPa | 0 mm | 0 m/s | 221 W/m² | - |
| 1777974625 | 18.33° C | 73% | 1003.9 hPa | 0 mm | 0 m/s | 142 W/m² | - |
| 1777974017 | 17.78° C | 75% | 1003.8 hPa | 0 mm | 0.45 m/s, 94° | 126 W/m² | - |
| 1777973425 | 17.78° C | 75% | 1003.8 hPa | 0 mm | 0.45 m/s, 88° | 159 W/m² | - |
| 1777972817 | 17.78° C | 75% | 1003.9 hPa | 0 mm | 0.45 m/s, 94° | 149 W/m² | - |
| 1777972222 | 17.22° C | 76% | 1003.7 hPa | 0 mm | 0 m/s | 250 W/m² | - |
| 1777971629 | 17.22° C | 78% | 1003.8 hPa | 0 mm | 0 m/s | 138 W/m² | - |
| 1777971021 | 16.67° C | 77% | 1003.8 hPa | 0 mm | 0 m/s | 149 W/m² | - |
| 1777970429 | 16.67° C | 81% | 1003.8 hPa | 0 mm | 0 m/s | 178 W/m² | - |
| 1777969821 | 16.11° C | 84% | 1003.9 hPa | 0 mm | 0.45 m/s, 282° | 175 W/m² | - |
| 1777969229 | 15.56° C | 86% | 1003.9 hPa | 0 mm | 0.45 m/s, 276° | 139 W/m² | - |
| 1777968621 | 15.56° C | 87% | 1004 hPa | 0 mm | 0.45 m/s, 53° | 114 W/m² | - |
| 1777968027 | 15.56° C | 88% | 1003.9 hPa | 0 mm | 0.45 m/s, 279° | 104 W/m² | - |
| 1777967418 | 15.56° C | 87% | 1004.1 hPa | 0 mm | 0.45 m/s, 272° | 102 W/m² | - |
| 1777966826 | 15° C | 88% | 1004.1 hPa | 0 mm | 0 m/s | 108 W/m² | - |
| 1777966232 | 14.44° C | 91% | 1004.1 hPa | 0 mm | 0 m/s | 117 W/m² | - |
| 1777965033 | 13.89° C | 96% | 1004.1 hPa | 0 mm | 0.45 m/s, 269° | 87 W/m² | - |
| 1777962626 | 13.89° C | 99% | 1004 hPa | 0 mm | 0 m/s | 86 W/m² | - |
| 1777935618 | 15.56° C | 73% | 1006.6 hPa | 0 mm | 0 m/s | 0 W/m² | - |
| 1777934417 | 16.11° C | 72% | 1006.8 hPa | 0 mm | 0 m/s | 0 W/m² | - |
| 1777933825 | 16.11° C | 71% | 1006.8 hPa | 0 mm | 0 m/s | 0 W/m² | - |
| 1777933217 | 16.11° C | 72% | 1006.7 hPa | 0 mm | 0 m/s | 0 W/m² | - |
| 1777932625 | 16.11° C | 72% | 1006.8 hPa | 0 mm | 0 m/s | 0 W/m² | - |
* Rain latest hour (hover to see other rain measurements)
** Current wind speed in m/s (hover to see current wind gust speed)